aviador You're here:

YGLA Decoded Metar

in
Report Time2018-05-20 19:30:00
UTC Time2018-05-20 19:42:06
Flight Rules vfr VFR
Wind170° at 03 kt
W.Decomp.*RWY 10: 1.0 kt HW 2.8 kt RCW
W.Rank170° ranks 16
Current wind is below 170° avg. (4.9)
Visibility9999 m
Phenomena:N/A
Clouds:N/A
Expected CloudBase > 4,000 ft AGL from Temp-Dew spread
CeilingNone
Temp14°C
Dew Point04°C (51% RH)
AAT11.6°C
QNH1020 hPa
Raw Report
METAR YGLA 201930Z AUTO 17003KT 9999 // NCD 14/04 Q1020
RF00.0/000.0=

Extra information for YGLA:More info

Social comments